createdAt,value
2018-12-24T00:03:18.442Z,101576.03
2018-12-24T00:06:43.982Z,101579.92
2018-12-24T00:10:09.654Z,101588.66
2018-12-24T00:13:35.252Z,101601.33
2018-12-24T00:17:00.854Z,101607.97
2018-12-24T00:20:26.420Z,101606.07
2018-12-24T00:23:52.059Z,101607.78
2018-12-24T00:27:17.712Z,101610.57
2018-12-24T00:30:43.571Z,101624.84
2018-12-24T00:34:09.126Z,101621.32
2018-12-24T00:37:34.981Z,101635.97
2018-12-24T00:41:00.915Z,101643.70
2018-12-24T00:44:26.532Z,101666.91
2018-12-24T00:47:52.134Z,101658.55
2018-12-24T00:51:17.771Z,101671.28
2018-12-24T00:54:43.411Z,101680.14
2018-12-24T00:58:08.994Z,101694.18
2018-12-24T01:01:34.603Z,101715.90
2018-12-24T01:05:00.163Z,101714.41
2018-12-24T01:08:25.809Z,101730.76
2018-12-24T01:11:51.699Z,101736.53
2018-12-24T01:15:17.293Z,101746.04
2018-12-24T01:18:42.966Z,101746.04
2018-12-24T01:22:08.587Z,101761.00
2018-12-24T01:25:34.169Z,101769.33
2018-12-24T01:28:59.764Z,101783.76
2018-12-24T01:32:25.367Z,101794.20
2018-12-24T01:35:51.260Z,101798.32
2018-12-24T01:39:16.914Z,101806.55
2018-12-24T01:42:42.581Z,101815.30
2018-12-24T01:46:08.282Z,101824.68
2018-12-24T01:49:33.837Z,101828.30
2018-12-24T01:52:59.435Z,101836.30
2018-12-24T01:56:25.060Z,101838.00
2018-12-24T01:59:51.034Z,101838.88
2018-12-24T02:03:16.649Z,101841.23
2018-12-24T02:06:42.370Z,101840.40
2018-12-24T02:10:08.251Z,101852.15
2018-12-24T02:13:33.892Z,101861.35
2018-12-24T02:16:59.776Z,101867.95
2018-12-24T02:20:25.799Z,101871.81
2018-12-24T02:23:51.383Z,101877.58
2018-12-24T02:27:16.978Z,101888.13
2018-12-24T02:30:42.633Z,101893.73
2018-12-24T02:34:08.559Z,101896.18
2018-12-24T02:37:34.147Z,101906.70
2018-12-24T02:41:00.028Z,101913.83
2018-12-24T02:44:25.616Z,101915.86
2018-12-24T02:47:51.294Z,101917.23
2018-12-24T02:51:16.934Z,101929.69
2018-12-24T02:54:42.521Z,101928.27
2018-12-24T02:58:08.108Z,101932.97
2018-12-24T03:01:33.792Z,101942.24
2018-12-24T03:04:59.372Z,101958.43
2018-12-24T03:08:24.993Z,101957.33
2018-12-24T03:11:50.620Z,101961.23
2018-12-24T03:15:16.550Z,101956.73
2018-12-24T03:18:42.436Z,101959.20
2018-12-24T03:22:08.064Z,101967.16
2018-12-24T03:25:33.911Z,101970.02
2018-12-24T03:28:59.512Z,101980.29
2018-12-24T03:32:25.084Z,101990.88
2018-12-24T03:35:50.702Z,102006.34
2018-12-24T03:39:16.251Z,102008.28
2018-12-24T03:42:41.870Z,102018.05
2018-12-24T03:46:07.544Z,102018.75
2018-12-24T03:49:33.215Z,102026.61
2018-12-24T03:52:58.852Z,102026.20
2018-12-24T03:56:24.444Z,102040.98
2018-12-24T03:59:50.325Z,102044.27
2018-12-24T04:03:15.956Z,102059.78
2018-12-24T04:06:41.615Z,102052.98
2018-12-24T04:10:07.747Z,102062.86
2018-12-24T04:13:33.597Z,102074.42
2018-12-24T04:16:59.177Z,102078.22
2018-12-24T04:20:25.114Z,102089.42
2018-12-24T04:23:51.008Z,102090.80
2018-12-24T04:27:16.552Z,102100.25
2018-12-24T04:30:42.427Z,102110.12
2018-12-24T04:34:08.096Z,102110.45
2018-12-24T04:37:33.731Z,102121.83
2018-12-24T04:40:59.307Z,102124.42
2018-12-24T04:44:24.861Z,102129.22
2018-12-24T04:47:50.477Z,102135.72
2018-12-24T04:51:16.354Z,102139.75
2018-12-24T04:54:42.203Z,102152.48
2018-12-24T04:58:07.874Z,102156.86
2018-12-24T05:01:33.458Z,102165.65
2018-12-24T05:04:59.038Z,102177.77
2018-12-24T05:08:24.587Z,102196.09
2018-12-24T05:11:50.244Z,102202.47
2018-12-24T05:15:16.504Z,102201.42
2018-12-24T05:18:42.143Z,102210.63
2018-12-24T05:22:07.698Z,102214.08
2018-12-24T05:25:33.328Z,102228.44
2018-12-24T05:28:58.932Z,102231.70
2018-12-24T05:32:24.584Z,102236.95
2018-12-24T05:35:50.144Z,102254.05
2018-12-24T05:39:15.769Z,102256.75
2018-12-24T05:42:41.417Z,102269.30
2018-12-24T05:46:10.163Z,102278.47
2018-12-24T05:49:35.832Z,102294.34
2018-12-24T05:53:01.720Z,102299.95
2018-12-24T05:56:27.313Z,102310.64
2018-12-24T05:59:52.939Z,102312.70
2018-12-24T06:03:18.602Z,102326.38
2018-12-24T06:06:44.192Z,102340.12
2018-12-24T06:10:09.830Z,102356.75
2018-12-24T06:13:35.497Z,102369.66
2018-12-24T06:17:01.185Z,102371.66
2018-12-24T06:20:26.846Z,102382.96
2018-12-24T06:23:52.443Z,102395.69
2018-12-24T06:27:18.066Z,102412.31
2018-12-24T06:30:43.647Z,102421.49
2018-12-24T06:34:09.202Z,102431.42
2018-12-24T06:37:34.823Z,102436.89
2018-12-24T06:41:00.453Z,102449.61
2018-12-24T06:44:26.094Z,102452.12
2018-12-24T06:47:51.868Z,102460.50
2018-12-24T06:51:17.437Z,102464.00
2018-12-24T06:54:43.044Z,102463.06
2018-12-24T06:58:08.893Z,102464.19
2018-12-24T07:01:35.149Z,102472.53
2018-12-24T07:05:00.737Z,102469.90
2018-12-24T07:08:26.300Z,102473.81
2018-12-24T07:11:51.882Z,102485.22
2018-12-24T07:15:17.505Z,102494.00
2018-12-24T07:18:43.349Z,102492.20
2018-12-24T07:22:09.048Z,102496.29
2018-12-24T07:25:34.633Z,102510.12
2018-12-24T07:29:00.227Z,102503.97
2018-12-24T07:32:25.802Z,102512.70
2018-12-24T07:35:51.656Z,102516.98
2018-12-24T07:39:17.508Z,102529.53
2018-12-24T07:42:43.394Z,102530.41
2018-12-24T07:46:09.004Z,102543.08
2018-12-24T07:49:34.597Z,102551.33
2018-12-24T07:53:00.185Z,102557.12
2018-12-24T07:56:25.766Z,102559.45
2018-12-24T07:59:51.384Z,102566.06
2018-12-24T08:03:16.970Z,102572.47
2018-12-24T08:06:42.609Z,102570.03
2018-12-24T08:10:08.257Z,102571.23
2018-12-24T08:13:34.287Z,102577.70
2018-12-24T08:16:59.913Z,102580.06
2018-12-24T08:20:25.489Z,102592.75
2018-12-24T08:23:51.125Z,102614.15
2018-12-24T08:27:16.762Z,102616.18
2018-12-24T08:30:42.359Z,102623.72
2018-12-24T08:34:07.998Z,102634.02
2018-12-24T08:37:33.714Z,102649.83
2018-12-24T08:40:59.581Z,102653.95
2018-12-24T08:44:25.409Z,102659.16
2018-12-24T08:47:51.030Z,102659.47
2018-12-24T08:51:16.705Z,102670.34
2018-12-24T08:54:42.428Z,102676.84
2018-12-24T08:58:08.058Z,102686.23
2018-12-24T09:01:33.902Z,102697.41
2018-12-24T09:04:59.549Z,102703.05
2018-12-24T09:08:25.207Z,102723.77
2018-12-24T09:11:50.865Z,102734.84
2018-12-24T09:15:16.495Z,102747.81
2018-12-24T09:18:42.228Z,102753.70
2018-12-24T09:22:07.858Z,102758.11
2018-12-24T09:25:33.590Z,102768.83
2018-12-24T09:28:59.320Z,102783.89
2018-12-24T09:32:24.942Z,102790.23
2018-12-24T09:35:50.704Z,102802.66
2018-12-24T09:39:16.328Z,102806.89
2018-12-24T09:42:42.199Z,102807.81
2018-12-24T09:46:08.233Z,102822.29
2018-12-24T09:49:34.170Z,102825.33
2018-12-24T09:52:59.782Z,102825.45
2018-12-24T09:56:25.502Z,102831.29
2018-12-24T09:59:51.155Z,102831.86
2018-12-24T10:03:33.838Z,102837.43
2018-12-24T10:07:11.633Z,102845.31
2018-12-24T10:10:37.415Z,102842.89
2018-12-24T10:14:03.313Z,102837.91
2018-12-24T10:17:29.079Z,102839.38
2018-12-24T10:20:55.095Z,102844.15
2018-12-24T10:24:22.198Z,102844.41
2018-12-24T10:27:48.211Z,102845.34
2018-12-24T10:31:13.924Z,102845.74
2018-12-24T10:34:39.876Z,102852.20
2018-12-24T10:38:05.440Z,102862.27
2018-12-24T10:41:31.115Z,102859.05
2018-12-24T10:44:56.721Z,102865.09
2018-12-24T10:48:22.562Z,102868.00
2018-12-24T10:51:48.153Z,102861.31
2018-12-24T10:55:13.840Z,102862.55
2018-12-24T10:58:39.772Z,102860.60
2018-12-24T11:02:05.437Z,102859.17
2018-12-24T11:05:30.998Z,102861.89
2018-12-24T11:08:56.540Z,102865.43
2018-12-24T11:12:22.133Z,102862.82
2018-12-24T11:15:47.767Z,102870.66
2018-12-24T11:19:13.648Z,102874.58
2018-12-24T11:22:39.606Z,102866.24
2018-12-24T11:26:06.908Z,102869.98
2018-12-24T11:29:32.491Z,102873.94
2018-12-24T11:32:58.073Z,102880.45
2018-12-24T11:36:23.609Z,102874.25
2018-12-24T11:39:49.257Z,102882.56
2018-12-24T11:43:14.811Z,102876.00
2018-12-24T11:46:40.699Z,102884.06
2018-12-24T11:50:06.548Z,102878.55
2018-12-24T11:53:32.264Z,102892.23
2018-12-24T11:56:57.872Z,102880.06
2018-12-24T12:00:56.075Z,102890.17
2018-12-24T12:04:23.034Z,102896.92
2018-12-24T12:07:51.467Z,102896.09
2018-12-24T12:11:17.071Z,102907.91
2018-12-24T12:14:42.940Z,102905.98
2018-12-24T12:18:08.755Z,102903.50
2018-12-24T12:21:34.410Z,102907.87
2018-12-24T12:24:59.968Z,102920.34
2018-12-24T12:28:25.509Z,102911.85
2018-12-24T12:31:51.254Z,102909.20
2018-12-24T12:35:17.182Z,102915.97
2018-12-24T12:38:42.989Z,102930.89
2018-12-24T12:42:08.591Z,102933.77
2018-12-24T12:45:34.133Z,102940.35
2018-12-24T12:48:59.720Z,102946.56
2018-12-24T12:52:25.271Z,102943.94
2018-12-24T12:55:50.830Z,102943.41
2018-12-24T12:59:16.427Z,102941.87
2018-12-24T13:02:42.040Z,102942.35
2018-12-24T13:06:07.598Z,102941.13
2018-12-24T13:09:33.118Z,102950.79
2018-12-24T13:12:58.725Z,102940.70
2018-12-24T13:16:24.321Z,102933.19
2018-12-24T13:19:49.918Z,102939.28
2018-12-24T13:23:15.436Z,102951.81
2018-12-24T13:26:41.211Z,102958.94
2018-12-24T13:30:07.899Z,102953.69
2018-12-24T13:33:33.491Z,102955.55
2018-12-24T13:36:59.592Z,102966.39
2018-12-24T13:40:25.171Z,102975.16
2018-12-24T13:43:50.748Z,102984.70
2018-12-24T13:47:16.384Z,102982.45
2018-12-24T13:50:41.929Z,102995.00
2018-12-24T13:54:07.847Z,103001.33
2018-12-24T13:57:33.476Z,103014.03
2018-12-24T14:00:59.073Z,103019.30
2018-12-24T14:04:24.616Z,103019.72
2018-12-24T14:07:50.161Z,103021.22
2018-12-24T14:11:15.682Z,103019.56
2018-12-24T14:14:41.542Z,103019.02
2018-12-24T14:18:07.348Z,103020.72
2018-12-24T14:21:32.888Z,103026.86
2018-12-24T14:24:58.715Z,103039.63
2018-12-24T14:28:24.322Z,103041.98
2018-12-24T14:31:49.891Z,103051.33
2018-12-24T14:35:15.718Z,103062.42
2018-12-24T14:38:41.689Z,103069.20
2018-12-24T14:42:07.235Z,103062.05
2018-12-24T14:45:32.841Z,103067.53
2018-12-24T14:48:58.351Z,103074.39
2018-12-24T14:52:23.963Z,103082.17
2018-12-24T14:55:49.513Z,103094.41
2018-12-24T14:59:15.032Z,103099.44
2018-12-24T15:02:40.543Z,103105.40
2018-12-24T15:06:06.111Z,103108.94
2018-12-24T15:09:31.640Z,103109.85
2018-12-24T15:12:57.446Z,103111.97
2018-12-24T15:16:23.006Z,103120.61
2018-12-24T15:19:48.510Z,103116.36
2018-12-24T15:23:14.233Z,103123.02
2018-12-24T15:26:39.835Z,103125.47
2018-12-24T15:30:05.834Z,103127.97
2018-12-24T15:33:31.654Z,103125.25
2018-12-24T15:36:57.286Z,103115.95
2018-12-24T15:40:22.860Z,103111.68
2018-12-24T15:43:48.756Z,103106.33
2018-12-24T15:47:14.320Z,103115.36
2018-12-24T15:50:39.869Z,103115.92
2018-12-24T15:54:05.494Z,103116.48
2018-12-24T15:57:30.408Z,103122.48
2018-12-24T16:00:55.992Z,103124.19
2018-12-24T16:04:21.495Z,103130.58
2018-12-24T16:07:48.560Z,103120.36
2018-12-24T16:11:14.071Z,103117.84
2018-12-24T16:14:39.673Z,103116.08
2018-12-24T16:18:05.196Z,103127.23
2018-12-24T16:21:30.802Z,103140.22
2018-12-24T16:24:56.384Z,103148.21
2018-12-24T16:28:22.288Z,103149.05
2018-12-24T16:31:47.827Z,103164.25
2018-12-24T16:35:13.383Z,103169.20
2018-12-24T16:38:39.274Z,103161.67
2018-12-24T16:42:05.738Z,103161.36
2018-12-24T16:45:31.282Z,103159.17
2018-12-24T16:48:57.116Z,103160.00
2018-12-24T16:52:22.903Z,103171.81
2018-12-24T16:55:48.480Z,103175.86
2018-12-24T16:59:14.081Z,103177.65
2018-12-24T17:02:39.600Z,103187.89
2018-12-24T17:06:05.207Z,103198.21
2018-12-24T17:09:30.745Z,103184.34
2018-12-24T17:12:56.306Z,103179.06
2018-12-24T17:16:21.894Z,103187.49
2018-12-24T17:19:47.795Z,103189.36
2018-12-24T17:23:13.628Z,103187.02
2018-12-24T17:26:39.187Z,103192.54
2018-12-24T17:30:05.060Z,103213.90
2018-12-24T17:33:30.955Z,103213.95
2018-12-24T17:36:56.827Z,103218.80
2018-12-24T17:40:22.400Z,103225.04
2018-12-24T17:43:47.913Z,103215.31
2018-12-24T17:47:16.339Z,103214.92
2018-12-24T17:50:41.261Z,103216.27
2018-12-24T17:54:07.853Z,103214.98
2018-12-24T17:57:33.525Z,103220.32
2018-12-24T18:00:59.310Z,103224.77
2018-12-24T18:04:24.830Z,103227.89
2018-12-24T18:07:50.404Z,103230.11
2018-12-24T18:11:15.966Z,103228.35
2018-12-24T18:14:41.779Z,103238.56
2018-12-24T18:18:07.430Z,103249.70
2018-12-24T18:21:33.029Z,103268.83
2018-12-24T18:24:58.726Z,103264.39
2018-12-24T18:28:24.323Z,103260.84
2018-12-24T18:31:49.917Z,103267.93
2018-12-24T18:35:18.351Z,103259.92
2018-12-24T18:38:43.885Z,103260.34
2018-12-24T18:42:09.459Z,103268.79
2018-12-24T18:45:34.987Z,103295.93
2018-12-24T18:49:00.529Z,103300.36
2018-12-24T18:52:28.455Z,103296.34
2018-12-24T18:55:54.021Z,103299.00
2018-12-24T18:59:19.939Z,103301.23
2018-12-24T19:02:45.492Z,103298.94
2018-12-24T19:06:11.032Z,103294.50
2018-12-24T19:09:36.686Z,103309.57
2018-12-24T19:13:02.284Z,103320.23
2018-12-24T19:16:27.814Z,103329.08
2018-12-24T19:19:53.380Z,103329.52
2018-12-24T19:23:19.054Z,103334.85
2018-12-24T19:26:44.802Z,103323.30
2018-12-24T19:30:11.067Z,103320.05
2018-12-24T19:33:36.681Z,103338.36
2018-12-24T19:37:02.666Z,103329.42
2018-12-24T19:40:28.221Z,103326.72
2018-12-24T19:43:53.807Z,103323.10
2018-12-24T19:47:19.643Z,103331.97
2018-12-24T19:50:45.208Z,103340.02
2018-12-24T19:54:11.047Z,103337.36
2018-12-24T19:57:36.570Z,103336.05
2018-12-24T20:01:02.117Z,103336.48
2018-12-24T20:04:27.775Z,103340.62
2018-12-24T20:07:53.382Z,103339.74
2018-12-24T20:11:19.021Z,103341.64
2018-12-24T20:14:44.620Z,103342.56
2018-12-24T20:18:10.242Z,103343.95
2018-12-24T20:21:35.769Z,103347.95
2018-12-24T20:25:01.337Z,103356.87
2018-12-24T20:28:26.912Z,103357.34
2018-12-24T20:31:52.558Z,103365.80
2018-12-24T20:35:18.222Z,103376.48
2018-12-24T20:38:43.794Z,103383.19
2018-12-24T20:42:09.803Z,103379.66
2018-12-24T20:45:35.641Z,103375.63
2018-12-24T20:49:01.199Z,103372.98
2018-12-24T20:52:26.762Z,103378.31
2018-12-24T20:55:52.607Z,103375.19
2018-12-24T20:59:18.163Z,103376.93
2018-12-24T21:02:43.978Z,103375.14
2018-12-24T21:06:09.624Z,103372.83
2018-12-24T21:09:35.433Z,103373.33
2018-12-24T21:13:01.025Z,103370.64
2018-12-24T21:16:26.607Z,103365.72
2018-12-24T21:19:52.247Z,103364.45
2018-12-24T21:23:17.838Z,103359.58
2018-12-24T21:26:43.498Z,103357.31
2018-12-24T21:30:09.520Z,103360.90
2018-12-24T21:33:35.074Z,103358.63
2018-12-24T21:37:00.632Z,103358.61
2018-12-24T21:40:26.539Z,103349.69
2018-12-24T21:43:52.171Z,103345.70
2018-12-24T21:47:17.783Z,103338.56
2018-12-24T21:50:43.452Z,103340.77
2018-12-24T21:54:09.060Z,103351.34
2018-12-24T21:57:34.660Z,103342.83
2018-12-24T22:01:00.166Z,103347.81
2018-12-24T22:04:25.745Z,103344.28
2018-12-24T22:07:51.832Z,103355.43
2018-12-24T22:11:17.489Z,103349.22
2018-12-24T22:14:43.145Z,103354.58
2018-12-24T22:18:09.071Z,103348.22
2018-12-24T22:21:34.625Z,103348.31
2018-12-24T22:25:00.475Z,103352.27
2018-12-24T22:28:26.056Z,103353.14
2018-12-24T22:31:51.937Z,103360.69
2018-12-24T22:35:17.481Z,103357.13
2018-12-24T22:38:43.059Z,103356.53
2018-12-24T22:42:08.883Z,103357.03
2018-12-24T22:45:34.420Z,103354.31
2018-12-24T22:49:00.236Z,103357.88
2018-12-24T22:52:25.837Z,103353.41
2018-12-24T22:55:51.423Z,103351.13
2018-12-24T22:59:17.061Z,103344.92
2018-12-24T23:02:42.786Z,103338.72
2018-12-24T23:06:08.372Z,103337.84
2018-12-24T23:09:34.172Z,103332.38
2018-12-24T23:12:59.724Z,103334.09
2018-12-24T23:16:25.381Z,103326.20
2018-12-24T23:19:51.031Z,103326.95
2018-12-24T23:23:16.846Z,103325.64
2018-12-24T23:26:42.455Z,103318.55
2018-12-24T23:30:08.401Z,103321.16
2018-12-24T23:33:33.997Z,103325.73
2018-12-24T23:36:59.572Z,103327.45
2018-12-24T23:40:25.262Z,103327.44
2018-12-24T23:43:55.421Z,103328.28
2018-12-24T23:47:24.199Z,103317.66
2018-12-24T23:50:53.914Z,103311.89
2018-12-24T23:54:19.719Z,103313.23
2018-12-24T23:57:48.625Z,103316.73
